createdAt,value
2019-02-18T00:01:36.320Z,98465.89
2019-02-18T00:04:11.926Z,98463.95
2019-02-18T00:06:50.510Z,98465.09
2019-02-18T00:09:24.417Z,98465.09
2019-02-18T00:11:58.073Z,98460.80
2019-02-18T00:14:31.926Z,98458.86
2019-02-18T00:17:05.486Z,98453.25
2019-02-18T00:19:36.739Z,98449.62
2019-02-18T00:22:11.669Z,98458.12
2019-02-18T00:24:42.801Z,98450.64
2019-02-18T00:27:21.230Z,98443.81
2019-02-18T00:29:55.165Z,98456.36
2019-02-18T00:32:25.087Z,98456.36
2019-02-18T00:34:54.911Z,98444.75
2019-02-18T00:37:28.432Z,98444.75
2019-02-18T00:39:58.571Z,98442.78
2019-02-18T00:42:33.450Z,98445.67
2019-02-18T00:45:03.423Z,98444.80
2019-02-18T00:47:36.683Z,98442.59
2019-02-18T00:50:08.233Z,98437.58
2019-02-18T00:52:44.011Z,98445.22
2019-02-18T00:55:14.878Z,98444.42
2019-02-18T00:57:52.372Z,98438.56
2019-02-18T01:00:24.533Z,98439.95
2019-02-18T01:03:01.378Z,98439.55
2019-02-18T01:05:36.770Z,98442.16
2019-02-18T01:08:06.819Z,98436.38
2019-02-18T01:10:36.587Z,98437.06
2019-02-18T01:13:11.772Z,98434.61
2019-02-18T01:15:41.534Z,98435.52
2019-02-18T01:18:11.490Z,98441.80
2019-02-18T01:20:44.352Z,98435.09
2019-02-18T01:23:14.157Z,98440.23
2019-02-18T01:25:44.958Z,98434.44
2019-02-18T01:28:18.762Z,98430.61
2019-02-18T01:30:48.578Z,98434.31
2019-02-18T01:33:21.481Z,98435.91
2019-02-18T01:35:53.183Z,98430.42
2019-02-18T01:38:24.533Z,98428.97
2019-02-18T01:40:57.121Z,98428.52
2019-02-18T01:43:28.256Z,98425.20
2019-02-18T01:45:58.882Z,98423.28
2019-02-18T01:48:29.838Z,98420.27
2019-02-18T01:50:59.699Z,98418.85
2019-02-18T01:53:29.885Z,98420.55
2019-02-18T01:56:01.999Z,98415.57
2019-02-18T01:58:33.285Z,98407.03
2019-02-18T02:01:06.716Z,98410.97
2019-02-18T02:03:40.003Z,98408.89
2019-02-18T02:06:12.484Z,98413.98
2019-02-18T02:08:45.307Z,98407.94
2019-02-18T02:11:25.175Z,98417.29
2019-02-18T02:13:55.305Z,98414.48
2019-02-18T02:16:25.087Z,98416.60
2019-02-18T02:18:55.031Z,98397.25
2019-02-18T02:21:33.584Z,98404.77
2019-02-18T02:24:06.758Z,98407.47
2019-02-18T02:26:47.139Z,98400.87
2019-02-18T02:29:21.492Z,98400.87
2019-02-18T02:32:03.636Z,98402.47
2019-02-18T02:34:38.834Z,98400.42
2019-02-18T02:37:10.241Z,98400.42
2019-02-18T02:39:42.014Z,98398.70
2019-02-18T02:42:17.077Z,98399.72
2019-02-18T02:44:49.900Z,98396.81
2019-02-18T02:47:28.177Z,98400.81
2019-02-18T02:50:18.017Z,98400.37
2019-02-18T02:52:55.081Z,98396.66
2019-02-18T02:55:41.191Z,98389.69
2019-02-18T02:58:25.940Z,98394.26
2019-02-18T03:01:14.337Z,98389.44
2019-02-18T03:04:05.638Z,98389.97
2019-02-18T03:07:05.385Z,98390.89
2019-02-18T03:09:43.529Z,98388.56
2019-02-18T03:12:38.837Z,98383.06
2019-02-18T03:15:44.689Z,98390.84
2019-02-18T03:18:36.190Z,98392.64
2019-02-18T03:21:43.208Z,98390.64
2019-02-18T03:24:28.043Z,98392.52
2019-02-18T03:27:23.997Z,98390.89
2019-02-18T03:30:48.019Z,98392.48
2019-02-18T03:33:51.689Z,98395.90
2019-02-18T03:37:00.198Z,98394.28
2019-02-18T03:39:57.831Z,98397.66
2019-02-18T03:42:46.788Z,98395.11
2019-02-18T03:45:35.452Z,98388.58
2019-02-18T03:48:17.526Z,98391.75
2019-02-18T03:50:59.232Z,98388.83
2019-02-18T03:53:39.963Z,98395.47
2019-02-18T03:56:39.070Z,98398.48
2019-02-18T03:59:36.518Z,98397.52
2019-02-18T04:02:20.853Z,98398.55
2019-02-18T04:05:10.417Z,98392.20
2019-02-18T04:08:00.419Z,98398.59
2019-02-18T04:11:15.282Z,98387.75
2019-02-18T04:14:02.786Z,98391.84
2019-02-18T04:16:48.958Z,98393.18
2019-02-18T04:19:43.380Z,98399.20
2019-02-18T04:22:43.545Z,98400.95
2019-02-18T04:25:27.255Z,98396.80
2019-02-18T04:28:15.538Z,98393.11
2019-02-18T04:31:01.744Z,98399.39
2019-02-18T04:33:53.078Z,98392.34
2019-02-18T04:36:48.267Z,98397.83
2019-02-18T04:39:31.461Z,98390.36
2019-02-18T04:42:27.612Z,98390.14
2019-02-18T04:45:15.939Z,98389.87
2019-02-18T04:48:00.887Z,98388.91
2019-02-18T04:50:42.009Z,98386.02
2019-02-18T04:53:29.599Z,98385.70
2019-02-18T04:56:16.220Z,98385.36
2019-02-18T04:59:17.826Z,98385.45
2019-02-18T05:02:04.595Z,98380.88
2019-02-18T05:04:53.092Z,98377.97
2019-02-18T05:07:50.760Z,98377.78
2019-02-18T05:10:47.262Z,98373.52
2019-02-18T05:13:45.956Z,98374.51
2019-02-18T05:19:59.331Z,98367.16
2019-02-18T05:22:43.540Z,98368.75
2019-02-18T05:25:44.495Z,98371.30
2019-02-18T05:28:45.509Z,98367.08
2019-02-18T05:31:40.180Z,98362.05
2019-02-18T05:34:35.689Z,98366.09
2019-02-18T05:40:35.879Z,98365.44
2019-02-18T05:43:38.221Z,98364.52
2019-02-18T05:46:38.744Z,98367.69
2019-02-18T05:49:24.458Z,98368.80
2019-02-18T05:52:23.490Z,98365.13
2019-02-18T05:55:20.381Z,98369.44
2019-02-18T05:58:13.851Z,98368.60
2019-02-18T06:00:57.829Z,98371.84
2019-02-18T06:03:51.996Z,98370.92
2019-02-18T06:06:42.598Z,98373.47
2019-02-18T06:09:42.697Z,98372.29
2019-02-18T06:12:56.482Z,98367.03
2019-02-18T06:15:45.361Z,98369.44
2019-02-18T06:18:55.643Z,98376.24
2019-02-18T06:22:30.318Z,98377.61
2019-02-18T06:25:25.297Z,98379.86
2019-02-18T06:28:28.908Z,98377.66
2019-02-18T06:31:05.918Z,98379.44
2019-02-18T06:33:39.670Z,98384.89
2019-02-18T06:36:18.550Z,98383.62
2019-02-18T06:38:48.939Z,98381.97
2019-02-18T06:41:18.851Z,98387.77
2019-02-18T06:43:53.264Z,98387.14
2019-02-18T06:46:38.008Z,98389.83
2019-02-18T06:49:08.274Z,98391.80
2019-02-18T06:51:38.147Z,98398.02
2019-02-18T06:54:08.242Z,98397.67
2019-02-18T06:57:02.196Z,98393.68
2019-02-18T06:59:37.700Z,98393.98
2019-02-18T07:02:12.699Z,98399.00
2019-02-18T07:04:50.846Z,98403.62
2019-02-18T07:07:34.474Z,98402.94
2019-02-18T07:10:09.220Z,98405.95
2019-02-18T07:12:48.750Z,98406.94
2019-02-18T07:15:21.873Z,98400.95
2019-02-18T07:17:53.244Z,98405.33
2019-02-18T07:20:23.231Z,98409.38
2019-02-18T07:22:53.269Z,98407.17
2019-02-18T07:25:23.037Z,98406.80
2019-02-18T07:27:52.952Z,98412.39
2019-02-18T07:30:22.760Z,98405.59
2019-02-18T07:32:52.544Z,98408.39
2019-02-18T07:35:26.763Z,98403.66
2019-02-18T07:37:58.333Z,98404.77
2019-02-18T07:40:31.200Z,98407.45
2019-02-18T07:43:02.484Z,98409.18
2019-02-18T07:45:37.114Z,98403.45
2019-02-18T07:48:10.473Z,98396.05
2019-02-18T07:50:44.268Z,98396.05
2019-02-18T07:53:15.800Z,98395.66
2019-02-18T07:55:50.232Z,98405.34
2019-02-18T07:58:24.006Z,98399.83
2019-02-18T08:00:54.434Z,98402.63
2019-02-18T08:03:24.428Z,98402.63
2019-02-18T08:05:55.148Z,98399.98
2019-02-18T08:08:30.363Z,98399.64
2019-02-18T08:11:00.118Z,98398.12
2019-02-18T08:13:35.228Z,98410.48
2019-02-18T08:16:06.568Z,98393.11
2019-02-18T08:18:46.128Z,98399.09
2019-02-18T08:21:16.065Z,98395.84
2019-02-18T08:23:48.206Z,98385.39
2019-02-18T08:26:25.050Z,98387.44
2019-02-18T08:29:00.587Z,98388.85
2019-02-18T08:31:34.409Z,98384.77
2019-02-18T08:34:16.386Z,98390.20
2019-02-18T08:36:52.813Z,98386.70
2019-02-18T08:39:28.627Z,98388.16
2019-02-18T08:42:06.920Z,98393.59
2019-02-18T08:44:48.233Z,98397.19
2019-02-18T08:47:32.637Z,98398.43
2019-02-18T08:50:13.416Z,98393.33
2019-02-18T08:52:44.367Z,98395.47
2019-02-18T08:55:17.533Z,98396.90
2019-02-18T08:57:50.632Z,98394.88
2019-02-18T09:00:23.669Z,98397.14
2019-02-18T09:02:56.266Z,98396.16
2019-02-18T09:05:28.684Z,98400.22
2019-02-18T09:08:01.892Z,98397.89
2019-02-18T09:10:34.256Z,98400.82
2019-02-18T09:13:04.125Z,98399.81
2019-02-18T09:15:34.064Z,98396.36
2019-02-18T09:18:06.542Z,98395.56
2019-02-18T09:20:36.456Z,98398.41
2019-02-18T09:23:16.051Z,98398.41
2019-02-18T09:25:48.811Z,98396.73
2019-02-18T09:28:18.663Z,98397.11
2019-02-18T09:30:54.534Z,98395.14
2019-02-18T09:33:32.265Z,98406.61
2019-02-18T09:36:02.055Z,98398.77
2019-02-18T09:38:37.772Z,98398.77
2019-02-18T09:41:11.845Z,98396.88
2019-02-18T09:43:53.662Z,98402.81
2019-02-18T09:46:27.238Z,98400.07
2019-02-18T09:48:57.855Z,98392.41
2019-02-18T09:51:33.990Z,98398.13
2019-02-18T09:56:56.285Z,98392.52
2019-02-18T09:59:30.155Z,98401.41
2019-02-18T10:02:07.589Z,98391.59
2019-02-18T10:04:49.019Z,98388.04
2019-02-18T10:07:29.109Z,98389.80
2019-02-18T10:10:00.317Z,98392.86
2019-02-18T10:12:44.203Z,98392.91
2019-02-18T10:15:19.364Z,98394.33
2019-02-18T10:17:50.124Z,98400.97
2019-02-18T10:20:20.111Z,98397.26
2019-02-18T10:22:57.554Z,98395.59
2019-02-18T10:25:27.997Z,98390.48
2019-02-18T10:27:57.730Z,98387.78
2019-02-18T10:30:35.037Z,98389.83
2019-02-18T10:33:04.651Z,98388.47
2019-02-18T10:35:41.615Z,98391.17
2019-02-18T10:38:11.533Z,98391.25
2019-02-18T10:40:41.663Z,98390.34
2019-02-18T10:43:20.344Z,98391.25
2019-02-18T10:45:57.220Z,98386.90
2019-02-18T10:48:32.201Z,98383.44
2019-02-18T10:51:06.078Z,98381.88
2019-02-18T10:53:36.467Z,98377.71
2019-02-18T10:56:13.704Z,98379.05
2019-02-18T10:58:45.199Z,98374.30
2019-02-18T11:01:16.694Z,98376.67
2019-02-18T11:03:54.396Z,98380.02
2019-02-18T11:06:34.463Z,98377.97
2019-02-18T11:09:08.983Z,98379.95
2019-02-18T11:11:38.989Z,98369.44
2019-02-18T11:14:10.295Z,98367.75
2019-02-18T11:16:44.465Z,98368.34
2019-02-18T11:19:17.596Z,98367.48
2019-02-18T11:22:03.183Z,98364.38
2019-02-18T11:24:41.650Z,98362.89
2019-02-18T11:27:24.644Z,98356.05
2019-02-18T11:30:01.194Z,98356.31
2019-02-18T11:32:32.399Z,98352.78
2019-02-18T11:35:14.697Z,98349.02
2019-02-18T11:37:45.122Z,98353.04
2019-02-18T11:40:17.916Z,98349.65
2019-02-18T11:42:47.771Z,98347.60
2019-02-18T11:45:20.124Z,98343.24
2019-02-18T11:47:52.065Z,98340.48
2019-02-18T11:50:25.759Z,98336.19
2019-02-18T11:53:00.814Z,98337.14
2019-02-18T11:55:31.572Z,98327.67
2019-02-18T11:58:02.949Z,98327.55
2019-02-18T12:00:36.078Z,98318.73
2019-02-18T12:03:12.748Z,98317.89
2019-02-18T12:05:43.736Z,98311.59
2019-02-18T12:08:13.497Z,98304.89
2019-02-18T12:10:45.976Z,98315.20
2019-02-18T12:13:15.981Z,98305.17
2019-02-18T12:15:45.818Z,98304.97
2019-02-18T12:18:23.445Z,98304.23
2019-02-18T12:20:58.510Z,98303.02
2019-02-18T12:23:33.410Z,98297.66
2019-02-18T12:26:11.473Z,98293.31
2019-02-18T12:28:48.559Z,98286.36
2019-02-18T12:31:18.473Z,98279.98
2019-02-18T12:33:52.141Z,98282.20
2019-02-18T12:36:25.506Z,98280.38
2019-02-18T12:38:57.877Z,98270.22
2019-02-18T12:41:34.164Z,98270.05
2019-02-18T12:44:07.189Z,98272.87
2019-02-18T12:46:42.664Z,98267.32
2019-02-18T12:49:13.190Z,98258.86
2019-02-18T12:51:44.525Z,98267.62
2019-02-18T12:54:21.307Z,98260.68
2019-02-18T12:56:57.580Z,98257.74
2019-02-18T12:59:30.688Z,98256.33
2019-02-18T13:02:09.070Z,98251.39
2019-02-18T13:04:42.564Z,98255.44
2019-02-18T13:07:21.856Z,98242.33
2019-02-18T13:09:54.976Z,98250.66
2019-02-18T13:12:39.918Z,98251.58
2019-02-18T13:15:19.572Z,98242.34
2019-02-18T13:17:53.152Z,98239.25
2019-02-18T13:20:30.472Z,98239.45
2019-02-18T13:23:05.438Z,98229.16
2019-02-18T13:25:36.971Z,98225.67
2019-02-18T13:28:12.041Z,98229.13
2019-02-18T13:30:42.347Z,98225.24
2019-02-18T13:33:12.599Z,98225.46
2019-02-18T13:35:42.693Z,98222.23
2019-02-18T13:38:18.670Z,98222.93
2019-02-18T13:40:52.479Z,98222.00
2019-02-18T13:43:22.491Z,98224.31
2019-02-18T13:45:57.832Z,98216.11
2019-02-18T13:48:35.527Z,98223.91
2019-02-18T13:51:32.089Z,98225.61
2019-02-18T13:54:25.889Z,98219.76
2019-02-18T13:57:23.706Z,98227.45
2019-02-18T14:00:39.247Z,98224.49
2019-02-18T14:03:34.426Z,98220.47
2019-02-18T14:06:29.878Z,98222.93
2019-02-18T14:09:20.754Z,98214.77
2019-02-18T14:12:18.585Z,98211.11
2019-02-18T14:15:24.115Z,98211.34
2019-02-18T14:18:36.247Z,98204.95
2019-02-18T14:21:26.370Z,98203.38
2019-02-18T14:24:44.264Z,98206.78
2019-02-18T14:27:55.086Z,98203.30
2019-02-18T14:30:54.886Z,98197.87
2019-02-18T14:33:43.707Z,98199.04
2019-02-18T14:36:30.123Z,98188.61
2019-02-18T14:39:25.059Z,98189.63
2019-02-18T14:42:31.369Z,98181.88
2019-02-18T14:45:30.101Z,98180.02
2019-02-18T14:48:37.583Z,98179.42
2019-02-18T14:51:31.884Z,98175.89
2019-02-18T14:54:28.177Z,98173.64
2019-02-18T14:57:26.439Z,98171.75
2019-02-18T15:00:26.643Z,98171.31
2019-02-18T15:03:04.112Z,98167.34
2019-02-18T15:05:37.328Z,98168.25
2019-02-18T15:08:08.940Z,98160.24
2019-02-18T15:11:04.303Z,98166.16
2019-02-18T15:13:53.431Z,98164.21
2019-02-18T15:16:55.484Z,98157.59
2019-02-18T15:19:34.274Z,98163.59
2019-02-18T15:22:24.669Z,98162.16
2019-02-18T15:25:05.417Z,98156.48
2019-02-18T15:27:41.635Z,98158.40
2019-02-18T15:30:23.915Z,98158.32
2019-02-18T15:33:25.881Z,98159.81
2019-02-18T15:36:15.086Z,98153.29
2019-02-18T15:39:04.683Z,98151.03
2019-02-18T15:41:39.746Z,98150.64
2019-02-18T15:44:16.716Z,98150.83
2019-02-18T15:46:56.697Z,98146.47
2019-02-18T15:49:35.596Z,98148.34
2019-02-18T15:52:25.311Z,98140.13
2019-02-18T15:55:06.362Z,98137.44
2019-02-18T15:57:40.738Z,98143.04
2019-02-18T16:00:28.421Z,98129.17
2019-02-18T16:03:12.878Z,98135.68
2019-02-18T16:05:53.599Z,98134.36
2019-02-18T16:08:35.631Z,98133.80
2019-02-18T16:11:33.069Z,98126.67
2019-02-18T16:14:22.183Z,98130.42
2019-02-18T16:17:19.235Z,98132.31
2019-02-18T16:20:03.968Z,98132.86
2019-02-18T16:22:54.667Z,98137.29
2019-02-18T16:25:38.422Z,98130.06
2019-02-18T16:28:29.521Z,98128.20
2019-02-18T16:31:12.873Z,98135.98
2019-02-18T16:33:57.871Z,98129.20
2019-02-18T16:36:40.025Z,98130.47
2019-02-18T16:39:20.765Z,98126.25
2019-02-18T16:41:58.313Z,98135.30
2019-02-18T16:44:37.761Z,98136.50
2019-02-18T16:47:14.422Z,98139.34
2019-02-18T16:49:47.264Z,98130.23
2019-02-18T16:52:26.038Z,98131.86
2019-02-18T16:55:01.204Z,98136.59
2019-02-18T16:57:31.608Z,98138.02
2019-02-18T17:00:02.551Z,98130.03
2019-02-18T17:02:36.194Z,98131.59
2019-02-18T17:05:11.196Z,98127.70
2019-02-18T17:07:43.872Z,98131.44
2019-02-18T17:10:15.564Z,98131.86
2019-02-18T17:12:49.636Z,98131.07
2019-02-18T17:15:21.552Z,98137.35
2019-02-18T17:17:51.370Z,98140.04
2019-02-18T17:20:21.180Z,98135.12
2019-02-18T17:22:51.099Z,98135.16
2019-02-18T17:25:20.912Z,98136.21
2019-02-18T17:27:55.033Z,98143.22
2019-02-18T17:30:24.834Z,98141.95
2019-02-18T17:32:56.491Z,98145.98
2019-02-18T17:35:26.572Z,98156.24
2019-02-18T17:37:56.341Z,98154.23
2019-02-18T17:40:26.751Z,98156.81
2019-02-18T17:42:56.522Z,98162.31
2019-02-18T17:45:26.336Z,98167.29
2019-02-18T17:47:56.551Z,98162.05
2019-02-18T17:50:28.258Z,98167.53
2019-02-18T17:52:58.304Z,98163.87
2019-02-18T17:55:28.134Z,98165.22
2019-02-18T17:58:02.594Z,98171.32
2019-02-18T18:00:36.270Z,98175.01
2019-02-18T18:03:11.524Z,98173.17
2019-02-18T18:05:46.937Z,98166.36
2019-02-18T18:08:18.224Z,98168.88
2019-02-18T18:10:53.156Z,98170.37
2019-02-18T18:13:25.407Z,98172.73
2019-02-18T18:15:57.314Z,98169.58
2019-02-18T18:18:27.101Z,98166.58
2019-02-18T18:20:56.890Z,98168.67
2019-02-18T18:23:30.659Z,98169.02
2019-02-18T18:26:06.181Z,98167.90
2019-02-18T18:28:37.205Z,98167.43
2019-02-18T18:31:07.889Z,98166.71
2019-02-18T18:33:41.415Z,98166.97
2019-02-18T18:36:14.958Z,98164.94
2019-02-18T18:38:44.788Z,98160.19
2019-02-18T18:41:14.598Z,98170.73
2019-02-18T18:43:46.608Z,98165.62
2019-02-18T18:46:18.435Z,98162.86
2019-02-18T18:48:48.298Z,98160.39
2019-02-18T18:51:18.391Z,98164.73
2019-02-18T18:53:48.217Z,98163.31
2019-02-18T18:56:17.983Z,98158.89
2019-02-18T18:58:47.797Z,98165.27
2019-02-18T19:01:18.018Z,98168.77
2019-02-18T19:03:47.992Z,98166.81
2019-02-18T19:06:17.951Z,98166.30
2019-02-18T19:08:50.266Z,98165.09
2019-02-18T19:11:22.166Z,98159.84
2019-02-18T19:13:52.106Z,98171.83
2019-02-18T19:16:21.916Z,98173.48
2019-02-18T19:18:54.935Z,98169.66
2019-02-18T19:21:25.101Z,98167.19
2019-02-18T19:23:58.549Z,98174.19
2019-02-18T19:26:28.851Z,98176.27
2019-02-18T19:28:58.770Z,98168.83
2019-02-18T19:31:28.568Z,98180.88
2019-02-18T19:33:58.698Z,98182.66
2019-02-18T19:36:32.265Z,98172.33
2019-02-18T19:39:04.726Z,98184.09
2019-02-18T19:41:37.677Z,98180.08
2019-02-18T19:44:29.049Z,98189.95
2019-02-18T19:47:19.515Z,98188.41
2019-02-18T19:49:57.464Z,98194.39
2019-02-18T19:52:40.673Z,98190.67
2019-02-18T19:55:17.031Z,98185.23
2019-02-18T19:57:50.621Z,98194.59
2019-02-18T20:00:26.136Z,98196.86
2019-02-18T20:02:56.952Z,98202.30
2019-02-18T20:05:34.240Z,98197.48
2019-02-18T20:08:07.856Z,98200.88
2019-02-18T20:10:41.778Z,98204.27
2019-02-18T20:13:14.387Z,98201.89
2019-02-18T20:15:50.697Z,98201.47
2019-02-18T20:18:21.658Z,98197.36
2019-02-18T20:20:59.963Z,98204.14
2019-02-18T20:23:33.590Z,98199.92
2019-02-18T20:26:04.371Z,98198.16
2019-02-18T20:28:36.474Z,98206.61
2019-02-18T20:31:12.204Z,98206.53
2019-02-18T20:33:47.485Z,98202.72
2019-02-18T20:36:17.999Z,98200.04
2019-02-18T20:38:55.495Z,98204.47
2019-02-18T20:41:30.863Z,98208.78
2019-02-18T20:44:07.514Z,98208.78
2019-02-18T20:46:44.151Z,98208.36
2019-02-18T20:49:23.187Z,98205.56
2019-02-18T20:52:05.571Z,98205.56
2019-02-18T20:54:39.826Z,98191.96
2019-02-18T20:57:15.572Z,98197.94
2019-02-18T20:59:59.690Z,98198.45
2019-02-18T21:02:29.747Z,98188.66
2019-02-18T21:05:00.445Z,98178.16
2019-02-18T21:07:32.412Z,98192.54
2019-02-18T21:10:02.364Z,98192.92
2019-02-18T21:12:39.887Z,98188.49
2019-02-18T21:15:10.965Z,98209.89
2019-02-18T21:17:50.154Z,98190.09
2019-02-18T21:20:20.456Z,98184.75
2019-02-18T21:22:50.679Z,98184.75
2019-02-18T21:25:21.967Z,98196.17
2019-02-18T21:27:55.016Z,98198.91
2019-02-18T21:30:26.356Z,98196.64
2019-02-18T21:32:56.150Z,98197.68
2019-02-18T21:35:26.403Z,98192.14
2019-02-18T21:37:58.272Z,98197.19
2019-02-18T21:40:28.034Z,98191.23
2019-02-18T21:42:58.674Z,98191.23
2019-02-18T21:45:28.624Z,98194.55
2019-02-18T21:47:59.670Z,98193.20
2019-02-18T21:50:29.586Z,98189.40
2019-02-18T21:52:59.441Z,98190.00
2019-02-18T21:55:29.250Z,98183.83
2019-02-18T21:57:59.209Z,98185.22
2019-02-18T22:00:29.044Z,98183.59
2019-02-18T22:03:02.134Z,98188.08
2019-02-18T22:05:32.955Z,98183.49
2019-02-18T22:08:04.324Z,98190.28
2019-02-18T22:10:34.081Z,98186.48
2019-02-18T22:13:24.625Z,98187.08
2019-02-18T22:15:56.678Z,98182.66
2019-02-18T22:18:27.333Z,98186.72
2019-02-18T22:20:57.111Z,98193.23
2019-02-18T22:23:30.905Z,98188.86
2019-02-18T22:26:01.013Z,98191.57
2019-02-18T22:28:33.566Z,98189.97
2019-02-18T22:31:07.982Z,98187.20
2019-02-18T22:33:38.106Z,98193.67
2019-02-18T22:36:12.011Z,98189.47
2019-02-18T22:38:47.417Z,98187.80
2019-02-18T22:41:17.439Z,98185.43
2019-02-18T22:43:47.485Z,98187.30
2019-02-18T22:46:19.254Z,98190.73
2019-02-18T22:48:49.051Z,98185.89
2019-02-18T22:51:24.879Z,98186.77
2019-02-18T22:53:56.158Z,98187.90
2019-02-18T22:56:25.998Z,98187.09
2019-02-18T22:58:57.700Z,98185.63
2019-02-18T23:01:27.922Z,98191.00
2019-02-18T23:04:20.733Z,98195.01
2019-02-18T23:06:53.489Z,98200.55
2019-02-18T23:09:24.367Z,98196.00
2019-02-18T23:11:59.858Z,98198.96
2019-02-18T23:14:31.891Z,98201.65
2019-02-18T23:17:07.658Z,98204.66
2019-02-18T23:19:38.118Z,98199.08
2019-02-18T23:22:14.315Z,98200.52
2019-02-18T23:24:44.721Z,98199.72
2019-02-18T23:27:20.081Z,98205.66
2019-02-18T23:29:50.682Z,98206.93
2019-02-18T23:32:25.399Z,98202.13
2019-02-18T23:34:56.698Z,98205.02
2019-02-18T23:37:28.109Z,98211.56
2019-02-18T23:39:57.896Z,98211.07
2019-02-18T23:42:27.739Z,98212.84
2019-02-18T23:44:59.452Z,98220.05
2019-02-18T23:47:31.115Z,98221.80
2019-02-18T23:50:00.970Z,98221.67
2019-02-18T23:52:30.759Z,98214.51
2019-02-18T23:55:00.582Z,98212.48
2019-02-18T23:57:31.422Z,98216.00
